createdAt,value
2022-09-13T00:02:41.874Z,22.06
2022-09-13T00:05:44.135Z,22.06
2022-09-13T00:08:46.781Z,22.06
2022-09-13T00:11:48.866Z,22.00
2022-09-13T00:14:51.758Z,22.00
2022-09-13T00:17:53.858Z,22.00
2022-09-13T00:21:05.960Z,22.00
2022-09-13T00:24:08.913Z,22.00
2022-09-13T00:27:12.363Z,22.00
2022-09-13T00:30:14.693Z,21.94
2022-09-13T00:33:16.726Z,21.94
2022-09-13T00:36:18.838Z,21.94
2022-09-13T00:39:21.004Z,21.94
2022-09-13T00:42:28.373Z,21.94
2022-09-13T00:45:30.438Z,21.94
2022-09-13T00:48:34.460Z,21.94
2022-09-13T00:51:37.150Z,21.88
2022-09-13T00:54:52.683Z,21.88
2022-09-13T00:57:59.354Z,21.88
2022-09-13T01:01:03.842Z,21.81
2022-09-13T01:04:09.666Z,21.81
2022-09-13T01:07:17.438Z,21.81
2022-09-13T01:10:19.695Z,21.81
2022-09-13T01:13:24.448Z,21.81
2022-09-13T01:16:27.166Z,21.81
2022-09-13T01:19:29.206Z,21.81
2022-09-13T01:22:53.668Z,21.81
2022-09-13T01:26:38.431Z,21.81
2022-09-13T01:30:07.076Z,21.81
2022-09-13T01:33:26.692Z,21.81
2022-09-13T01:36:50.230Z,21.81
2022-09-13T01:40:05.263Z,21.81
2022-09-13T01:43:16.503Z,21.81
2022-09-13T01:46:26.315Z,21.81
2022-09-13T01:49:47.534Z,21.81
2022-09-13T01:53:08.779Z,21.81
2022-09-13T01:56:33.534Z,21.81
2022-09-13T01:59:52.771Z,21.81
2022-09-13T02:03:18.351Z,21.75
2022-09-13T02:06:47.475Z,21.75
2022-09-13T02:09:56.661Z,21.75
2022-09-13T02:13:00.727Z,21.75
2022-09-13T02:16:10.189Z,21.69
2022-09-13T02:19:22.991Z,21.75
2022-09-13T02:22:41.367Z,21.75
2022-09-13T02:25:46.218Z,21.75
2022-09-13T02:28:52.261Z,21.69
2022-09-13T02:32:18.540Z,21.69
2022-09-13T02:35:41.565Z,21.69
2022-09-13T02:38:55.901Z,21.69
2022-09-13T02:42:09.326Z,21.69
2022-09-13T02:45:15.171Z,21.69
2022-09-13T02:48:42.930Z,21.69
2022-09-13T02:52:12.975Z,21.63
2022-09-13T02:55:32.788Z,21.63
2022-09-13T02:58:59.884Z,21.63
2022-09-13T03:02:09.274Z,21.63
2022-09-13T03:05:11.331Z,21.63
2022-09-13T03:08:15.556Z,21.63
2022-09-13T03:11:49.819Z,21.63
2022-09-13T03:15:04.256Z,21.63
2022-09-13T03:18:30.076Z,21.56
2022-09-13T03:21:35.093Z,21.56
2022-09-13T03:24:59.137Z,21.56
2022-09-13T03:28:27.919Z,21.56
2022-09-13T03:31:54.104Z,21.50
2022-09-13T03:35:13.593Z,21.50
2022-09-13T03:38:34.235Z,21.50
2022-09-13T03:41:42.818Z,21.50
2022-09-13T03:44:49.237Z,21.50
2022-09-13T03:47:52.148Z,21.50
2022-09-13T03:50:54.272Z,21.44
2022-09-13T03:54:01.182Z,21.44
2022-09-13T03:57:12.736Z,21.44
2022-09-13T04:00:15.609Z,21.44
2022-09-13T04:03:17.978Z,21.44
2022-09-13T04:06:20.081Z,21.44
2022-09-13T04:09:22.740Z,21.44
2022-09-13T04:12:25.039Z,21.44
2022-09-13T04:15:29.776Z,21.44
2022-09-13T04:18:32.105Z,21.38
2022-09-13T04:21:34.144Z,21.44
2022-09-13T04:24:36.482Z,21.38
2022-09-13T04:27:38.500Z,21.31
2022-09-13T04:30:47.361Z,21.38
2022-09-13T04:33:50.142Z,21.38
2022-09-13T04:36:53.826Z,21.44
2022-09-13T04:39:55.855Z,21.38
2022-09-13T04:42:57.932Z,21.38
2022-09-13T04:46:01.436Z,21.38
2022-09-13T04:49:04.303Z,21.38
2022-09-13T04:52:06.336Z,21.38
2022-09-13T04:55:08.778Z,21.38
2022-09-13T04:58:11.220Z,21.38
2022-09-13T05:01:13.355Z,21.38
2022-09-13T05:04:15.560Z,21.38
2022-09-13T05:07:17.556Z,21.31
2022-09-13T05:10:19.797Z,21.38
2022-09-13T05:13:22.034Z,21.31
2022-09-13T05:16:26.413Z,21.31
2022-09-13T05:19:28.496Z,21.25
2022-09-13T05:22:30.484Z,21.25
2022-09-13T05:25:32.462Z,21.31
2022-09-13T05:28:36.236Z,21.25
2022-09-13T05:31:40.455Z,21.31
2022-09-13T05:34:42.565Z,21.31
2022-09-13T05:37:45.039Z,21.25
2022-09-13T05:40:47.439Z,21.25
2022-09-13T05:43:49.657Z,21.25
2022-09-13T05:46:51.753Z,21.25
2022-09-13T05:50:09.877Z,21.25
2022-09-13T05:53:13.035Z,21.25
2022-09-13T05:56:20.160Z,21.25
2022-09-13T05:59:22.219Z,21.25
2022-09-13T06:02:24.400Z,21.13
2022-09-13T06:05:29.915Z,21.25
2022-09-13T06:08:35.269Z,21.25
2022-09-13T06:11:37.260Z,21.31
2022-09-13T06:14:39.348Z,21.38
2022-09-13T06:17:41.340Z,21.44
2022-09-13T06:20:43.675Z,21.50
2022-09-13T06:23:53.444Z,21.56
2022-09-13T06:26:55.567Z,21.63
2022-09-13T06:29:57.576Z,21.88
2022-09-13T06:32:59.725Z,21.94
2022-09-13T06:36:11.322Z,22.06
2022-09-13T06:39:13.349Z,22.00
2022-09-13T06:42:16.630Z,22.00
2022-09-13T06:45:18.829Z,22.13
2022-09-13T06:48:20.910Z,22.19
2022-09-13T06:51:24.227Z,22.25
2022-09-13T06:54:26.253Z,22.25
2022-09-13T06:57:30.887Z,22.25
2022-09-13T07:00:32.914Z,22.25
2022-09-13T07:03:35.027Z,22.25
2022-09-13T07:06:40.005Z,22.31
2022-09-13T07:09:43.028Z,22.38
2022-09-13T07:12:45.210Z,22.38
2022-09-13T07:15:47.293Z,22.44
2022-09-13T07:18:59.821Z,22.44
2022-09-13T07:22:01.858Z,22.38
2022-09-13T07:25:03.984Z,22.31
2022-09-13T07:28:06.146Z,22.31
2022-09-13T07:31:12.260Z,22.25
2022-09-13T07:34:17.244Z,22.38
2022-09-13T07:37:20.703Z,22.38
2022-09-13T07:40:22.854Z,22.38
2022-09-13T07:43:25.913Z,22.38
2022-09-13T07:46:32.715Z,22.44
2022-09-13T07:49:35.067Z,22.50
2022-09-13T07:52:38.080Z,22.56
2022-09-13T07:55:40.092Z,22.63
2022-09-13T07:58:44.083Z,22.69
2022-09-13T08:01:48.527Z,22.75
2022-09-13T08:04:50.594Z,22.81
2022-09-13T08:07:52.696Z,22.88
2022-09-13T08:10:55.267Z,22.94
2022-09-13T08:13:57.518Z,23.00
2022-09-13T08:16:59.572Z,23.06
2022-09-13T08:20:01.811Z,23.06
2022-09-13T08:23:04.889Z,23.13
2022-09-13T08:26:08.951Z,23.19
2022-09-13T08:29:12.227Z,23.19
2022-09-13T08:32:14.286Z,23.25
2022-09-13T08:35:16.410Z,23.25
2022-09-13T08:38:19.006Z,23.31
2022-09-13T08:41:40.107Z,23.38
2022-09-13T08:44:47.986Z,23.44
2022-09-13T08:48:13.217Z,23.38
2022-09-13T08:51:29.260Z,23.44
2022-09-13T08:54:32.393Z,23.44
2022-09-13T08:57:41.042Z,23.44
2022-09-13T09:00:53.223Z,23.38
2022-09-13T09:04:04.141Z,23.44
2022-09-13T09:07:10.460Z,23.44
2022-09-13T09:10:15.218Z,23.38
2022-09-13T09:13:28.478Z,23.38
2022-09-13T09:16:42.757Z,23.38
2022-09-13T09:19:49.294Z,23.38
2022-09-13T09:22:52.632Z,23.38
2022-09-13T09:26:09.078Z,23.44
2022-09-13T09:29:24.690Z,23.50
2022-09-13T09:32:47.162Z,23.44
2022-09-13T09:36:02.032Z,23.50
2022-09-13T09:39:11.161Z,23.56
2022-09-13T09:42:18.349Z,23.44
2022-09-13T09:45:20.606Z,23.50
2022-09-13T09:48:29.034Z,23.44
2022-09-13T09:51:32.162Z,23.44
2022-09-13T09:54:36.751Z,23.38
2022-09-13T09:57:52.347Z,23.31
2022-09-13T10:00:56.972Z,23.31
2022-09-13T10:04:08.570Z,23.31
2022-09-13T10:07:26.196Z,23.25
2022-09-13T10:10:36.644Z,23.19
2022-09-13T10:13:38.715Z,23.25
2022-09-13T10:16:40.871Z,23.19
2022-09-13T10:20:20.076Z,23.31
2022-09-13T10:23:22.334Z,23.25
2022-09-13T10:26:26.153Z,23.25
2022-09-13T10:29:29.025Z,23.25
2022-09-13T10:32:31.836Z,23.25
2022-09-13T10:35:34.079Z,23.25
2022-09-13T10:38:45.514Z,23.19
2022-09-13T10:41:55.999Z,23.19
2022-09-13T10:45:23.162Z,23.19
2022-09-13T10:48:25.424Z,23.19
2022-09-13T10:51:27.450Z,23.19
2022-09-13T10:54:29.645Z,23.13
2022-09-13T10:57:36.234Z,23.19
2022-09-13T11:00:47.074Z,23.19
2022-09-13T11:04:07.624Z,23.19
2022-09-13T11:07:20.084Z,23.13
2022-09-13T11:10:45.062Z,23.13
2022-09-13T11:13:59.465Z,23.25
2022-09-13T11:17:38.921Z,23.31
2022-09-13T11:21:04.728Z,23.38
2022-09-13T11:24:34.896Z,23.38
2022-09-13T11:27:49.063Z,23.38
2022-09-13T11:31:27.014Z,23.38
2022-09-13T11:34:33.238Z,23.38
2022-09-13T11:37:46.861Z,23.31
2022-09-13T11:40:54.761Z,23.38
2022-09-13T11:44:24.458Z,23.44
2022-09-13T11:47:35.321Z,23.56
2022-09-13T11:50:55.875Z,23.63
2022-09-13T11:54:42.372Z,23.56
2022-09-13T11:57:49.360Z,23.56
2022-09-13T12:00:56.925Z,23.63
2022-09-13T12:04:11.402Z,23.75
2022-09-13T12:07:25.042Z,23.75
2022-09-13T12:10:29.839Z,23.88
2022-09-13T12:13:39.713Z,23.75
2022-09-13T12:16:45.821Z,23.81
2022-09-13T12:19:54.775Z,23.75
2022-09-13T12:23:01.252Z,23.75
2022-09-13T12:26:25.107Z,23.81
2022-09-13T12:29:46.013Z,23.75
2022-09-13T12:32:49.350Z,23.75
2022-09-13T12:36:20.247Z,23.94
2022-09-13T12:39:34.437Z,24.00
2022-09-13T12:42:59.701Z,24.06
2022-09-13T12:46:22.987Z,23.94
2022-09-13T12:49:49.869Z,23.94
2022-09-13T12:53:03.155Z,23.88
2022-09-13T12:56:23.195Z,24.00
2022-09-13T12:59:41.050Z,24.00
2022-09-13T13:02:57.205Z,24.00
2022-09-13T13:06:15.153Z,24.06
2022-09-13T13:09:44.027Z,24.13
2022-09-13T13:12:46.184Z,24.19
2022-09-13T13:15:50.201Z,24.25
2022-09-13T13:18:59.730Z,24.31
2022-09-13T13:22:39.165Z,24.50
2022-09-13T13:26:07.483Z,24.50
2022-09-13T13:29:17.235Z,24.44
2022-09-13T13:32:19.289Z,24.31
2022-09-13T13:35:32.331Z,24.31
2022-09-13T13:38:48.143Z,24.38
2022-09-13T13:42:03.265Z,24.75
2022-09-13T13:45:21.781Z,25.31
2022-09-13T13:48:39.211Z,25.50
2022-09-13T13:51:41.376Z,25.69
2022-09-13T13:54:47.334Z,25.81
2022-09-13T13:57:59.339Z,25.81
2022-09-13T14:01:02.922Z,25.94
2022-09-13T14:04:36.664Z,26.13
2022-09-13T14:08:16.896Z,26.13
2022-09-13T14:11:30.601Z,26.19
2022-09-13T14:14:57.709Z,26.31
2022-09-13T14:18:19.020Z,26.38
2022-09-13T14:21:27.067Z,26.44
2022-09-13T14:24:29.829Z,26.31
2022-09-13T14:27:35.801Z,26.19
2022-09-13T14:30:39.280Z,26.13
2022-09-13T14:33:41.351Z,26.19
2022-09-13T14:37:02.180Z,26.13
2022-09-13T14:40:17.570Z,26.06
2022-09-13T14:43:22.275Z,26.06
2022-09-13T14:46:38.231Z,25.81
2022-09-13T14:49:48.912Z,26.00
2022-09-13T14:52:57.963Z,25.94
2022-09-13T14:56:06.618Z,25.94
2022-09-13T14:59:27.481Z,25.88
2022-09-13T15:02:38.199Z,25.81
2022-09-13T15:05:40.890Z,25.81
2022-09-13T15:08:46.478Z,25.63
2022-09-13T15:11:54.680Z,25.50
2022-09-13T15:15:26.358Z,25.31
2022-09-13T15:18:36.517Z,25.38
2022-09-13T15:21:39.321Z,25.38
2022-09-13T15:24:47.056Z,25.25
2022-09-13T15:27:50.029Z,25.06
2022-09-13T15:30:52.725Z,25.06
2022-09-13T15:34:24.885Z,25.19
2022-09-13T15:37:36.867Z,25.19
2022-09-13T15:40:48.140Z,25.13
2022-09-13T15:43:50.515Z,25.13
2022-09-13T15:46:55.063Z,25.19
2022-09-13T15:49:58.680Z,25.19
2022-09-13T15:53:01.382Z,25.31
2022-09-13T15:56:04.521Z,25.38
2022-09-13T15:59:06.507Z,25.31
2022-09-13T16:02:20.721Z,25.25
2022-09-13T16:05:23.034Z,25.19
2022-09-13T16:08:25.502Z,25.31
2022-09-13T16:11:28.382Z,25.25
2022-09-13T16:14:30.823Z,25.13
2022-09-13T16:17:33.234Z,25.13
2022-09-13T16:20:35.539Z,25.00
2022-09-13T16:23:37.645Z,24.94
2022-09-13T16:26:40.237Z,25.00
2022-09-13T16:29:43.351Z,24.88
2022-09-13T16:32:45.807Z,24.88
2022-09-13T16:35:47.957Z,24.88
2022-09-13T16:38:50.021Z,24.88
2022-09-13T16:41:52.061Z,24.88
2022-09-13T16:44:54.084Z,24.81
2022-09-13T16:47:56.059Z,24.69
2022-09-13T16:51:05.786Z,24.63
2022-09-13T16:54:07.836Z,24.50
2022-09-13T16:57:10.458Z,24.56
2022-09-13T17:00:13.321Z,24.50
2022-09-13T17:03:15.424Z,24.44
2022-09-13T17:06:20.546Z,24.38
2022-09-13T17:09:23.760Z,24.38
2022-09-13T17:12:25.996Z,24.38
2022-09-13T17:15:28.151Z,24.31
2022-09-13T17:18:30.349Z,24.31
2022-09-13T17:21:33.809Z,24.25
2022-09-13T17:24:37.129Z,24.19
2022-09-13T17:27:39.267Z,24.19
2022-09-13T17:30:41.373Z,24.19
2022-09-13T17:33:43.387Z,24.19
2022-09-13T17:36:49.221Z,24.19
2022-09-13T17:39:53.049Z,24.13
2022-09-13T17:42:55.460Z,24.13
2022-09-13T17:46:02.565Z,24.13
2022-09-13T17:49:04.671Z,24.13
2022-09-13T17:52:07.995Z,24.00
2022-09-13T17:55:10.293Z,24.00
2022-09-13T17:58:12.297Z,24.00
2022-09-13T18:01:15.561Z,24.00
2022-09-13T18:04:19.693Z,23.94
2022-09-13T18:07:21.809Z,24.06
2022-09-13T18:10:45.533Z,24.00
2022-09-13T18:13:46.472Z,24.00
2022-09-13T18:16:55.252Z,24.00
2022-09-13T18:19:57.309Z,24.00
2022-09-13T18:22:59.320Z,23.94
2022-09-13T18:26:10.621Z,23.94
2022-09-13T18:29:14.142Z,23.88
2022-09-13T18:32:16.187Z,23.88
2022-09-13T18:35:18.170Z,23.88
2022-09-13T18:38:20.180Z,23.81
2022-09-13T18:41:24.657Z,23.81
2022-09-13T18:44:30.207Z,23.81
2022-09-13T18:47:32.520Z,23.81
2022-09-13T18:50:34.557Z,23.81
2022-09-13T18:53:37.049Z,23.81
2022-09-13T18:56:39.150Z,23.81
2022-09-13T18:59:41.149Z,23.75
2022-09-13T19:03:02.093Z,23.75
2022-09-13T19:06:16.115Z,23.75
2022-09-13T19:09:20.809Z,23.75
2022-09-13T19:12:22.897Z,23.69
2022-09-13T19:15:24.896Z,23.69
2022-09-13T19:18:27.975Z,23.75
2022-09-13T19:21:32.376Z,23.69
2022-09-13T19:24:37.103Z,23.69
2022-09-13T19:27:39.125Z,23.63
2022-09-13T19:30:41.246Z,23.69
2022-09-13T19:33:44.284Z,23.69
2022-09-13T19:36:47.195Z,23.63
2022-09-13T19:39:49.626Z,23.63
2022-09-13T19:42:51.706Z,23.63
2022-09-13T19:45:58.480Z,23.63
2022-09-13T19:49:01.797Z,23.63
2022-09-13T19:52:03.880Z,23.56
2022-09-13T19:55:06.725Z,23.63
2022-09-13T19:58:08.906Z,23.63
2022-09-13T20:01:14.976Z,23.56
2022-09-13T20:04:21.355Z,23.63
2022-09-13T20:07:24.657Z,23.63
2022-09-13T20:10:26.992Z,23.56
2022-09-13T20:13:29.160Z,23.56
2022-09-13T20:16:34.057Z,23.56
2022-09-13T20:19:42.545Z,23.50
2022-09-13T20:22:45.778Z,23.56
2022-09-13T20:25:49.109Z,23.56
2022-09-13T20:28:55.334Z,23.56
2022-09-13T20:31:59.730Z,23.50
2022-09-13T20:35:02.085Z,23.50
2022-09-13T20:38:05.143Z,23.50
2022-09-13T20:41:09.635Z,23.56
2022-09-13T20:44:12.196Z,23.50
2022-09-13T20:47:14.257Z,23.50
2022-09-13T20:50:20.245Z,23.50
2022-09-13T20:53:22.243Z,23.50
2022-09-13T20:56:24.733Z,23.50
2022-09-13T20:59:26.918Z,23.50
2022-09-13T21:02:29.494Z,23.50
2022-09-13T21:05:31.547Z,23.44
2022-09-13T21:08:42.448Z,23.50
2022-09-13T21:11:44.638Z,23.44
2022-09-13T21:14:46.854Z,23.44
2022-09-13T21:17:48.970Z,23.44
2022-09-13T21:20:57.961Z,23.44
2022-09-13T21:24:00.516Z,23.38
2022-09-13T21:27:02.729Z,23.44
2022-09-13T21:30:08.126Z,23.44
2022-09-13T21:33:10.395Z,23.38
2022-09-13T21:36:13.624Z,23.38
2022-09-13T21:39:16.479Z,23.38
2022-09-13T21:42:18.519Z,23.38
2022-09-13T21:45:20.574Z,23.38
2022-09-13T21:48:22.891Z,23.38
2022-09-13T21:51:27.671Z,23.38
2022-09-13T21:54:29.663Z,23.38
2022-09-13T21:57:31.657Z,23.31
2022-09-13T22:00:35.931Z,23.31
2022-09-13T22:03:40.830Z,23.31
2022-09-13T22:06:43.857Z,23.31
2022-09-13T22:09:45.849Z,23.31
2022-09-13T22:12:47.885Z,23.31
2022-09-13T22:15:49.933Z,23.31
2022-09-13T22:18:57.516Z,23.31
2022-09-13T22:22:00.351Z,23.31
2022-09-13T22:25:02.573Z,23.25
2022-09-13T22:28:05.156Z,23.31
2022-09-13T22:31:09.693Z,23.31
2022-09-13T22:34:15.207Z,23.25
2022-09-13T22:37:17.324Z,23.31
2022-09-13T22:40:19.398Z,23.25
2022-09-13T22:43:21.416Z,23.25
2022-09-13T22:46:26.654Z,23.25
2022-09-13T22:49:28.677Z,23.31
2022-09-13T22:52:31.608Z,23.25
2022-09-13T22:55:34.312Z,23.25
2022-09-13T22:58:36.302Z,23.25
2022-09-13T23:01:38.662Z,23.25
2022-09-13T23:04:40.685Z,23.19
2022-09-13T23:07:42.985Z,23.25
2022-09-13T23:10:45.073Z,23.25
2022-09-13T23:13:49.407Z,23.19
2022-09-13T23:16:52.249Z,23.25
2022-09-13T23:19:54.310Z,23.19
2022-09-13T23:22:56.273Z,23.19
2022-09-13T23:26:09.760Z,23.19
2022-09-13T23:29:17.770Z,23.19
2022-09-13T23:32:19.762Z,23.19
2022-09-13T23:35:21.767Z,23.19
2022-09-13T23:38:23.795Z,23.19
2022-09-13T23:41:26.469Z,23.19
2022-09-13T23:44:29.105Z,23.19
2022-09-13T23:47:31.107Z,23.19
2022-09-13T23:50:33.114Z,23.19
2022-09-13T23:53:36.519Z,23.19
2022-09-13T23:56:38.623Z,23.13
2022-09-13T23:59:40.617Z,23.13
